Time;durP1;ratioP1;P1;durP2;ratioP2;P2;SDS_P1;SDS_P2;PMS_P1;PMS_P2;Temp;Humidity;BMP_temperature;BMP_pressure;BME280_temperature;BME280_humidity;BME280_pressure;Samples;Min_cycle;Max_cycle;Signal;HPM_P1;HPM_P2
2022/05/15 00:00:48;;;;;;;21.50;6.47;;;9.40;99.90;;;;;;5029888;28;20057;-74
2022/05/15 00:03:19;;;;;;;17.15;5.85;;;9.40;99.90;;;;;;5027469;28;20128;-74
2022/05/15 00:05:57;;;;;;;15.48;6.63;;;9.30;99.90;;;;;;5025424;28;20484;-74
2022/05/15 00:08:24;;;;;;;22.15;6.22;;;9.30;99.90;;;;;;5007530;28;20407;-74
2022/05/15 00:10:51;;;;;;;18.95;6.20;;;9.30;99.90;;;;;;5026699;28;20140;-74
2022/05/15 00:13:17;;;;;;;18.55;5.47;;;9.20;99.90;;;;;;5027576;28;20103;-74
2022/05/15 00:15:43;;;;;;;14.40;4.80;;;9.20;99.90;;;;;;5028627;28;20096;-74
2022/05/15 00:18:09;;;;;;;12.55;4.05;;;9.10;99.90;;;;;;5032464;28;20056;-74
2022/05/15 00:20:37;;;;;;;11.68;3.85;;;9.10;99.90;;;;;;5027435;28;20049;-74
2022/05/15 00:23:03;;;;;;;11.38;3.95;;;9.00;99.90;;;;;;5031068;28;20056;-74
2022/05/15 00:25:29;;;;;;;14.02;3.92;;;9.00;99.90;;;;;;5010782;28;20046;-74
2022/05/15 00:27:54;;;;;;;17.63;5.10;;;8.90;99.90;;;;;;5028043;28;20052;-74
2022/05/15 00:30:21;;;;;;;10.57;4.03;;;8.90;99.90;;;;;;5030075;28;20072;-75
2022/05/15 00:32:47;;;;;;;18.23;4.65;;;8.90;99.90;;;;;;5010830;28;20041;-74
2022/05/15 00:35:13;;;;;;;18.20;6.28;;;8.90;99.90;;;;;;5025618;28;20036;-74
2022/05/15 00:37:39;;;;;;;20.77;6.07;;;8.80;99.90;;;;;;5026331;28;20042;-75
2022/05/15 00:40:05;;;;;;;19.02;6.10;;;8.80;99.90;;;;;;5011085;28;20029;-74
2022/05/15 00:42:31;;;;;;;23.30;7.03;;;8.70;99.90;;;;;;5020729;28;20084;-74
2022/05/15 00:44:56;;;;;;;20.20;6.38;;;8.70;99.90;;;;;;5029194;28;20480;-74
2022/05/15 00:47:22;;;;;;;25.13;7.57;;;8.70;99.90;;;;;;5030667;28;20053;-74
2022/05/15 00:49:48;;;;;;;25.98;7.18;;;8.70;99.90;;;;;;5029497;28;20041;-74
2022/05/15 00:52:18;;;;;;;19.63;6.57;;;8.70;99.90;;;;;;5024478;28;20037;-74
2022/05/15 00:55:06;;;;;;;19.45;6.28;;;8.70;99.90;;;;;;5031929;28;20063;-74
2022/05/15 00:57:40;;;;;;;17.67;6.90;;;8.80;99.90;;;;;;5007629;28;20045;-74
2022/05/15 01:00:22;;;;;;;24.48;7.75;;;8.90;99.90;;;;;;5026797;28;20519;-74
2022/05/15 01:02:59;;;;;;;22.98;8.07;;;8.80;99.90;;;;;;5026456;28;20049;-74
2022/05/15 01:05:24;;;;;;;30.02;8.45;;;8.70;99.90;;;;;;5029309;28;20034;-74
2022/05/15 01:07:50;;;;;;;23.33;8.05;;;8.70;99.90;;;;;;5029965;28;20041;-74
2022/05/15 01:10:16;;;;;;;26.15;8.38;;;8.70;99.90;;;;;;5025578;28;20033;-74
2022/05/15 01:12:43;;;;;;;21.73;7.70;;;8.70;99.90;;;;;;5024368;28;20033;-74
2022/05/15 01:15:14;;;;;;;27.35;9.38;;;8.70;99.90;;;;;;5026469;28;20566;-74
2022/05/15 01:17:40;;;;;;;21.67;7.57;;;8.70;99.90;;;;;;5010741;28;20049;-74
2022/05/15 01:20:09;;;;;;;22.20;7.78;;;8.60;99.90;;;;;;5006451;28;20049;-74
2022/05/15 01:22:35;;;;;;;17.58;7.85;;;8.70;99.90;;;;;;5020884;28;20087;-74
2022/05/15 01:25:03;;;;;;;22.70;7.32;;;8.70;99.90;;;;;;5025639;28;20045;-74
2022/05/15 01:27:30;;;;;;;30.90;9.13;;;8.70;99.90;;;;;;5004801;28;20037;-74
2022/05/15 01:29:56;;;;;;;22.05;7.63;;;8.60;99.90;;;;;;5028900;28;20045;-74
2022/05/15 01:32:21;;;;;;;20.38;7.93;;;8.60;99.90;;;;;;5024428;28;20399;-74
2022/05/15 01:34:47;;;;;;;20.50;7.65;;;8.60;99.90;;;;;;5027978;28;20526;-74
2022/05/15 01:37:13;;;;;;;32.25;9.70;;;8.60;99.90;;;;;;5026609;28;20072;-74
2022/05/15 01:39:38;;;;;;;24.80;8.65;;;8.50;99.90;;;;;;5026022;28;20122;-74
2022/05/15 01:42:04;;;;;;;29.00;8.60;;;8.40;99.90;;;;;;5012662;28;20056;-74
2022/05/15 01:44:31;;;;;;;15.30;6.90;;;8.40;99.90;;;;;;5011436;28;20048;-74
2022/05/15 01:46:57;;;;;;;18.02;6.47;;;8.40;99.90;;;;;;5028924;28;20056;-74
2022/05/15 01:49:22;;;;;;;28.30;8.50;;;8.40;99.90;;;;;;5025440;28;20129;-74
2022/05/15 01:51:48;;;;;;;24.58;8.43;;;8.30;99.90;;;;;;5027859;28;20436;-74
2022/05/15 01:54:14;;;;;;;23.05;6.75;;;8.30;99.90;;;;;;5022403;28;20511;-74
2022/05/15 01:56:40;;;;;;;16.20;5.95;;;8.30;99.90;;;;;;5013105;28;20037;-74
2022/05/15 01:59:08;;;;;;;16.73;6.00;;;8.10;99.90;;;;;;5027183;28;20491;-74
2022/05/15 02:01:34;;;;;;;9.65;4.70;;;8.00;99.90;;;;;;5027436;28;20140;-74
2022/05/15 02:04:00;;;;;;;13.93;4.40;;;8.00;99.90;;;;;;5029285;28;20083;-74
2022/05/15 02:06:28;;;;;;;12.93;5.68;;;7.90;99.90;;;;;;5025687;28;20041;-74
2022/05/15 02:08:54;;;;;;;14.02;4.63;;;7.90;99.90;;;;;;5025325;28;20450;-74
2022/05/15 02:11:20;;;;;;;14.52;5.60;;;7.90;99.90;;;;;;5023808;28;20046;-74
2022/05/15 02:13:45;;;;;;;16.45;5.35;;;7.90;99.90;;;;;;5011589;28;20045;-74
2022/05/15 02:16:11;;;;;;;11.90;5.20;;;8.00;99.90;;;;;;5029043;28;20419;-74
2022/05/15 02:18:37;;;;;;;8.80;4.00;;;8.00;99.90;;;;;;5025903;28;20049;-74
2022/05/15 02:21:02;;;;;;;6.75;3.92;;;8.00;99.90;;;;;;5025756;28;20033;-74
2022/05/15 02:23:28;;;;;;;11.32;4.20;;;8.00;99.90;;;;;;5022949;28;20049;-74
2022/05/15 02:25:54;;;;;;;10.70;5.30;;;8.00;99.90;;;;;;5023361;28;20459;-74
2022/05/15 02:28:20;;;;;;;13.55;4.63;;;8.00;99.90;;;;;;5027631;28;20403;-74
2022/05/15 02:30:49;;;;;;;11.27;4.30;;;7.90;99.90;;;;;;5026808;28;20046;-74
2022/05/15 02:33:15;;;;;;;10.80;4.55;;;8.00;99.90;;;;;;5027057;28;20037;-74
2022/05/15 02:35:41;;;;;;;11.45;4.20;;;8.00;99.90;;;;;;5026961;28;20042;-74
2022/05/15 02:38:06;;;;;;;9.27;4.78;;;8.00;99.90;;;;;;5027720;28;20582;-74
2022/05/15 02:40:32;;;;;;;9.45;4.10;;;8.00;99.90;;;;;;5027209;28;20068;-74
2022/05/15 02:42:58;;;;;;;11.35;4.93;;;8.00;99.90;;;;;;5013490;28;20075;-74
2022/05/15 02:45:24;;;;;;;20.73;6.93;;;8.00;99.90;;;;;;5027982;28;20037;-74
2022/05/15 02:47:50;;;;;;;15.48;7.18;;;7.80;99.90;;;;;;5027192;28;21570;-74
2022/05/15 02:53:01;;;;;;;10.43;4.80;;;7.80;99.90;;;;;;5023510;28;20407;-74
2022/05/15 02:55:26;;;;;;;14.75;5.18;;;7.80;99.90;;;;;;5008419;28;20041;-74
2022/05/15 02:57:52;;;;;;;12.25;5.15;;;7.60;99.90;;;;;;5021124;28;20148;-74
2022/05/15 03:00:21;;;;;;;10.02;3.45;;;7.50;99.90;;;;;;5025685;28;20034;-74
2022/05/15 03:02:47;;;;;;;9.35;3.92;;;7.40;99.90;;;;;;5024924;28;20068;-74
2022/05/15 03:05:14;;;;;;;9.68;3.70;;;7.30;99.90;;;;;;5016404;28;20083;-74
2022/05/15 03:07:42;;;;;;;12.38;4.90;;;7.20;99.90;;;;;;5032559;22;20481;-74
2022/05/15 03:10:11;;;;;;;10.00;4.40;;;7.20;99.90;;;;;;5031628;28;20041;-74
2022/05/15 03:12:36;;;;;;;10.43;5.10;;;7.20;99.90;;;;;;5023868;28;20408;-74
2022/05/15 03:15:02;;;;;;;15.30;5.88;;;7.20;99.90;;;;;;5024515;28;20041;-74
2022/05/15 03:17:28;;;;;;;14.18;6.70;;;7.20;99.90;;;;;;5015939;28;20045;-74
2022/05/15 03:19:53;;;;;;;20.23;8.05;;;7.20;99.90;;;;;;5024653;28;21596;-74
2022/05/15 03:22:19;;;;;;;17.48;7.00;;;7.20;99.90;;;;;;5024777;28;20503;-74
2022/05/15 03:24:44;;;;;;;16.42;5.85;;;7.20;99.90;;;;;;5028882;28;20044;-74
2022/05/15 03:27:10;;;;;;;17.83;6.82;;;7.30;99.90;;;;;;5011912;28;20079;-74
2022/05/15 03:29:35;;;;;;;22.25;8.18;;;7.30;99.90;;;;;;5025709;28;20049;-74
2022/05/15 03:32:01;;;;;;;26.23;8.90;;;7.30;99.90;;;;;;5021284;28;20376;-74
2022/05/15 03:34:26;;;;;;;25.67;8.60;;;7.30;99.90;;;;;;5024353;28;20442;-74
2022/05/15 03:36:53;;;;;;;20.00;7.75;;;7.20;99.90;;;;;;5009402;28;20517;-74
2022/05/15 03:39:21;;;;;;;27.65;7.65;;;7.20;99.90;;;;;;5024986;28;20120;-74
2022/05/15 03:41:47;;;;;;;24.33;9.02;;;7.20;99.90;;;;;;5026535;28;20076;-74
2022/05/15 03:44:13;;;;;;;21.67;7.38;;;7.20;99.90;;;;;;5015921;28;20065;-74
2022/05/15 03:46:40;;;;;;;19.40;7.60;;;7.20;99.90;;;;;;5025701;28;20041;-74
2022/05/15 03:49:06;;;;;;;19.02;7.65;;;7.20;99.90;;;;;;5017835;28;20122;-74
2022/05/15 03:51:32;;;;;;;20.77;8.07;;;7.30;99.90;;;;;;5024225;28;20430;-74
2022/05/15 03:53:58;;;;;;;15.80;6.22;;;7.40;99.90;;;;;;5026384;28;20405;-74
2022/05/15 03:59:10;;;;;;;17.30;6.57;;;7.50;99.90;;;;;;5024936;28;20053;-74
2022/05/15 04:01:36;;;;;;;24.17;8.77;;;7.50;99.90;;;;;;5026079;28;20042;-74
2022/05/15 04:04:02;;;;;;;22.90;8.27;;;7.50;99.90;;;;;;5020881;28;20065;-74
2022/05/15 04:06:28;;;;;;;18.30;7.28;;;7.60;99.90;;;;;;5009805;28;20037;-74
2022/05/15 04:08:53;;;;;;;32.95;10.48;;;7.60;99.90;;;;;;5024667;28;20103;-74
2022/05/15 04:11:19;;;;;;;27.10;9.32;;;7.50;99.90;;;;;;5023961;28;20053;-74
2022/05/15 04:13:44;;;;;;;18.70;6.80;;;7.60;99.90;;;;;;5026334;28;20068;-74
2022/05/15 04:16:11;;;;;;;25.58;8.20;;;7.70;99.90;;;;;;5027298;28;20048;-74
2022/05/15 04:18:37;;;;;;;22.33;7.50;;;7.70;99.90;;;;;;5027893;28;20214;-74
2022/05/15 04:21:03;;;;;;;20.17;8.75;;;7.70;99.90;;;;;;5019741;28;20139;-75
2022/05/15 04:23:29;;;;;;;21.77;7.97;;;7.70;99.90;;;;;;5017228;28;20545;-74
2022/05/15 04:25:55;;;;;;;22.00;7.55;;;7.80;99.90;;;;;;5024337;28;20500;-74
2022/05/15 04:28:22;;;;;;;24.88;8.32;;;7.80;99.90;;;;;;5025077;28;20502;-75
2022/05/15 04:30:48;;;;;;;23.42;7.82;;;7.80;99.90;;;;;;5031287;28;20227;-74
2022/05/15 04:33:14;;;;;;;17.60;7.45;;;7.90;99.90;;;;;;5025453;28;20045;-74
2022/05/15 04:35:40;;;;;;;27.55;9.30;;;8.00;99.90;;;;;;5028819;28;20712;-74
2022/05/15 04:38:08;;;;;;;22.58;8.52;;;8.00;99.90;;;;;;5028797;28;20045;-74
2022/05/15 04:40:33;;;;;;;28.45;9.52;;;8.10;99.90;;;;;;5035936;28;20711;-74
2022/05/15 04:42:59;;;;;;;22.60;9.45;;;8.10;99.90;;;;;;5028864;28;20048;-74
2022/05/15 04:45:25;;;;;;;29.40;9.80;;;8.10;99.90;;;;;;5025408;28;20048;-75
2022/05/15 04:47:50;;;;;;;22.30;9.23;;;8.20;99.90;;;;;;5029577;28;20519;-74
2022/05/15 04:50:18;;;;;;;22.80;9.02;;;8.30;99.90;;;;;;5024226;28;20573;-74
2022/05/15 04:52:43;;;;;;;26.58;10.05;;;8.40;99.90;;;;;;5029448;28;20406;-74
2022/05/15 04:55:09;;;;;;;23.25;10.13;;;8.50;99.90;;;;;;5020297;28;20050;-75
2022/05/15 04:57:36;;;;;;;30.08;11.10;;;8.70;99.90;;;;;;5041066;28;20043;-74
2022/05/15 05:00:05;;;;;;;29.10;11.05;;;8.70;99.90;;;;;;5012524;28;20676;-74
2022/05/15 05:02:30;;;;;;;25.15;10.10;;;8.90;99.90;;;;;;5023795;28;20460;-74
2022/05/15 05:04:59;;;;;;;27.58;12.10;;;9.00;99.90;;;;;;5029056;28;20045;-75
2022/05/15 05:07:28;;;;;;;29.67;12.30;;;9.10;99.90;;;;;;5028221;28;20430;-74
2022/05/15 05:09:54;;;;;;;27.30;11.30;;;9.20;99.90;;;;;;5028322;28;20437;-75
2022/05/15 05:12:20;;;;;;;25.67;11.55;;;9.30;99.90;;;;;;5027357;28;20045;-74
2022/05/15 05:14:45;;;;;;;26.90;11.77;;;9.50;99.90;;;;;;5022468;28;20379;-74
2022/05/15 05:17:11;;;;;;;28.67;12.35;;;9.60;99.90;;;;;;5027492;28;20040;-74
2022/05/15 05:19:36;;;;;;;30.90;12.65;;;9.80;99.90;;;;;;5027326;28;20049;-74
2022/05/15 05:22:03;;;;;;;28.27;11.45;;;10.00;99.90;;;;;;5022473;28;20042;-74
2022/05/15 05:24:29;;;;;;;29.63;11.77;;;10.10;99.90;;;;;;5029335;28;20383;-75
2022/05/15 05:26:54;;;;;;;25.00;10.55;;;10.30;99.90;;;;;;5025573;28;20044;-75
2022/05/15 05:29:20;;;;;;;33.00;10.27;;;10.40;99.90;;;;;;5024412;28;20111;-75
2022/05/15 05:31:46;;;;;;;26.35;9.80;;;10.60;99.90;;;;;;5026917;28;20069;-75
2022/05/15 05:34:12;;;;;;;26.30;9.77;;;10.70;99.90;;;;;;5029141;28;20619;-75
2022/05/15 05:36:37;;;;;;;23.85;9.82;;;10.90;99.90;;;;;;5027638;28;20041;-75
2022/05/15 05:39:03;;;;;;;24.17;9.32;;;11.00;99.90;;;;;;5026954;28;20037;-74
2022/05/15 05:41:28;;;;;;;22.25;9.43;;;11.20;99.90;;;;;;5029613;28;20499;-74
2022/05/15 05:43:54;;;;;;;19.65;8.73;;;11.30;99.90;;;;;;5006298;28;20042;-74
2022/05/15 05:46:21;;;;;;;20.48;8.45;;;11.50;99.90;;;;;;5029107;28;20044;-74
2022/05/15 05:48:47;;;;;;;23.50;9.40;;;11.70;99.90;;;;;;5028097;28;20394;-75
2022/05/15 05:51:14;;;;;;;20.98;8.55;;;12.20;99.90;;;;;;5030160;28;20045;-75
2022/05/15 05:53:40;;;;;;;19.65;8.57;;;13.60;99.90;;;;;;5027423;28;20045;-75
2022/05/15 05:56:05;;;;;;;21.35;8.02;;;15.00;99.90;;;;;;5027408;28;20048;-75
2022/05/15 05:58:32;;;;;;;16.63;6.68;;;16.30;99.90;;;;;;5028739;28;20373;-75
2022/05/15 06:00:57;;;;;;;21.17;7.07;;;17.50;99.90;;;;;;5020494;28;20328;-76
2022/05/15 06:06:07;;;;;;;14.85;6.75;;;18.60;99.90;;;;;;5027097;28;20059;-75
2022/05/15 06:08:33;;;;;;;15.98;6.88;;;19.50;99.60;;;;;;5028842;28;20378;-75
2022/05/15 06:10:59;;;;;;;14.60;7.47;;;20.20;97.60;;;;;;5012725;28;20041;-73
2022/05/15 06:13:25;;;;;;;20.23;7.10;;;20.70;96.70;;;;;;5028415;28;20087;-75
2022/05/15 06:15:52;;;;;;;18.63;6.97;;;20.90;93.80;;;;;;5027936;28;20048;-75
2022/05/15 06:18:18;;;;;;;15.55;6.13;;;21.00;95.10;;;;;;5010997;28;20506;-74
2022/05/15 06:20:43;;;;;;;14.88;5.97;;;21.50;93.90;;;;;;5024817;28;20085;-73
2022/05/15 06:23:09;;;;;;;18.85;6.65;;;22.30;91.10;;;;;;5026586;28;20042;-73
2022/05/15 06:25:35;;;;;;;19.15;7.22;;;22.60;88.60;;;;;;5024238;28;20055;-73
2022/05/15 06:28:01;;;;;;;15.95;6.43;;;22.60;86.10;;;;;;5027697;28;20498;-73
2022/05/15 06:30:26;;;;;;;18.10;6.90;;;22.90;84.50;;;;;;5026168;28;20091;-73
2022/05/15 06:32:52;;;;;;;18.55;6.85;;;23.10;83.50;;;;;;5027246;28;20041;-73
2022/05/15 06:35:18;;;;;;;15.02;6.57;;;23.20;84.70;;;;;;5023097;28;20399;-73
2022/05/15 06:37:44;;;;;;;13.48;6.30;;;23.80;81.50;;;;;;5011018;28;20042;-73
2022/05/15 06:40:12;;;;;;;19.20;6.68;;;24.00;79.70;;;;;;5018735;28;20041;-73
2022/05/15 06:42:37;;;;;;;14.65;5.72;;;23.40;78.90;;;;;;5026287;28;20057;-73
2022/05/15 06:45:05;;;;;;;14.60;5.43;;;23.80;77.50;;;;;;5030055;28;20033;-73
2022/05/15 06:47:31;;;;;;;14.00;5.40;;;24.10;76.70;;;;;;5024615;28;20108;-73
2022/05/15 06:49:58;;;;;;;15.63;5.55;;;24.60;73.20;;;;;;5007946;28;20124;-73
2022/05/15 06:52:24;;;;;;;19.05;6.55;;;24.90;71.40;;;;;;5005028;28;20566;-73
2022/05/15 06:54:50;;;;;;;16.48;6.45;;;25.20;70.50;;;;;;5025228;28;20045;-73
2022/05/15 06:57:31;;;;;;;16.63;5.75;;;25.20;69.00;;;;;;5039578;28;20099;-73
2022/05/15 07:00:10;;;;;;;15.73;5.55;;;25.20;68.70;;;;;;5025758;28;20041;-73
2022/05/15 07:02:36;;;;;;;17.92;5.97;;;25.50;68.90;;;;;;5019123;28;20034;-73
2022/05/15 07:05:04;;;;;;;14.25;5.05;;;26.20;67.50;;;;;;5028487;28;20038;-73
2022/05/15 07:07:30;;;;;;;13.38;5.35;;;25.70;65.00;;;;;;5024326;28;21149;-74
2022/05/15 07:09:55;;;;;;;17.45;5.70;;;25.80;64.60;;;;;;5026454;28;20479;-74
2022/05/15 07:12:21;;;;;;;16.23;4.85;;;25.70;63.10;;;;;;5006245;28;20042;-73
2022/05/15 07:14:46;;;;;;;15.25;4.72;;;25.10;62.50;;;;;;5022241;28;20045;-76
2022/05/15 07:17:12;;;;;;;13.15;4.65;;;25.60;60.20;;;;;;5027038;28;20501;-74
2022/05/15 07:19:38;;;;;;;11.93;4.43;;;25.50;62.50;;;;;;5011292;28;20045;-74
2022/05/15 07:22:03;;;;;;;15.00;4.95;;;26.20;61.20;;;;;;5008400;28;20061;-74
2022/05/15 07:24:29;;;;;;;15.07;4.63;;;26.50;59.80;;;;;;5021245;28;20050;-73
2022/05/15 07:26:54;;;;;;;11.25;4.57;;;27.00;60.30;;;;;;5003152;28;20038;-73
2022/05/15 07:29:24;;;;;;;12.40;4.38;;;27.30;60.20;;;;;;5022827;28;20040;-74
2022/05/15 07:31:51;;;;;;;12.95;5.25;;;27.40;59.00;;;;;;5008899;28;20400;-73
2022/05/15 07:34:17;;;;;;;11.73;4.65;;;27.20;58.80;;;;;;5024053;28;20045;-73
2022/05/15 07:36:43;;;;;;;10.68;4.85;;;26.60;58.30;;;;;;5027496;28;20132;-73
2022/05/15 07:39:08;;;;;;;13.73;4.72;;;26.50;58.50;;;;;;5009971;28;20120;-74
2022/05/15 07:41:34;;;;;;;17.63;5.85;;;26.50;58.00;;;;;;5030404;28;20042;-74
2022/05/15 07:44:00;;;;;;;12.77;4.65;;;26.40;57.30;;;;;;5023056;28;20455;-74
2022/05/15 07:46:25;;;;;;;12.55;4.93;;;26.60;57.70;;;;;;5025469;28;20038;-74
2022/05/15 07:48:51;;;;;;;12.23;4.07;;;26.20;57.90;;;;;;5027640;28;20041;-74
2022/05/15 07:51:16;;;;;;;12.02;4.18;;;26.80;56.80;;;;;;5027612;28;20470;-74
2022/05/15 07:53:42;;;;;;;12.05;4.93;;;26.50;54.60;;;;;;5026590;28;20091;-74
2022/05/15 07:56:09;;;;;;;13.70;5.13;;;26.30;56.90;;;;;;5022237;28;20120;-74
2022/05/15 07:58:39;;;;;;;11.20;4.53;;;25.70;56.70;;;;;;5027480;28;20041;-73
2022/05/15 08:01:05;;;;;;;14.02;4.82;;;25.70;57.50;;;;;;5009362;28;20098;-73
2022/05/15 08:03:38;;;;;;;15.20;4.47;;;24.60;58.60;;;;;;5020232;28;20034;-74
2022/05/15 08:08:50;;;;;;;13.05;5.00;;;22.90;61.40;;;;;;5024096;28;20521;-73
2022/05/15 08:11:16;;;;;;;12.85;4.80;;;22.10;63.90;;;;;;5029947;28;20128;-73
2022/05/15 08:13:42;;;;;;;17.40;5.40;;;22.00;64.70;;;;;;5007016;28;20136;-73
2022/05/15 08:16:09;;;;;;;13.70;5.53;;;21.60;65.30;;;;;;5029400;28;20119;-73
2022/05/15 08:24:03;;;;;;;14.60;4.35;;;20.80;68.20;;;;;;5020688;28;20049;-73
2022/05/15 08:26:30;;;;;;;15.90;4.82;;;20.70;66.20;;;;;;5032271;28;20042;-73
2022/05/15 08:28:55;;;;;;;17.00;5.28;;;20.60;68.20;;;;;;5026620;28;20175;-73
2022/05/15 08:31:24;;;;;;;14.70;4.30;;;20.30;67.30;;;;;;5031371;28;20139;-73
2022/05/15 08:33:51;;;;;;;14.32;4.90;;;20.10;68.60;;;;;;5024941;28;20483;-73
2022/05/15 08:36:17;;;;;;;15.32;4.90;;;20.00;68.30;;;;;;5019404;28;20068;-73
2022/05/15 08:38:44;;;;;;;16.73;4.88;;;20.00;69.30;;;;;;5026101;28;20151;-73
2022/05/15 08:41:28;;;;;;;12.55;4.22;;;19.90;70.90;;;;;;5023851;28;20041;-72
2022/05/15 08:43:56;;;;;;;13.55;4.05;;;20.00;69.60;;;;;;5013770;28;20029;-73
2022/05/15 08:46:47;;;;;;;14.57;4.50;;;20.00;70.60;;;;;;5041805;28;20526;-73
2022/05/15 08:49:37;;;;;;;17.05;4.93;;;20.10;72.10;;;;;;5006825;28;20100;-73
2022/05/15 08:52:14;;;;;;;14.05;4.50;;;20.10;70.30;;;;;;5010880;28;20045;-72
2022/05/15 08:55:06;;;;;;;19.08;5.05;;;20.10;70.60;;;;;;5027313;28;20049;-72
2022/05/15 08:57:50;;;;;;;15.05;4.53;;;20.10;71.30;;;;;;5028700;28;20593;-72
2022/05/15 09:00:20;;;;;;;12.57;4.53;;;20.00;71.60;;;;;;5029495;28;20037;-72
2022/05/15 09:02:46;;;;;;;14.40;4.33;;;20.10;72.00;;;;;;5015025;28;20052;-72
2022/05/15 09:05:14;;;;;;;14.27;4.63;;;20.10;71.00;;;;;;5015026;28;20374;-72
2022/05/15 09:07:52;;;;;;;16.02;4.45;;;20.20;71.70;;;;;;5013594;28;20137;-72
2022/05/15 09:10:47;;;;;;;13.32;4.38;;;20.40;72.00;;;;;;5030355;28;20045;-72
2022/05/15 09:13:29;;;;;;;14.48;4.30;;;20.30;69.80;;;;;;5006825;28;20041;-72
2022/05/15 09:16:00;;;;;;;16.10;4.90;;;20.30;69.90;;;;;;5031276;28;20104;-72
2022/05/15 09:18:27;;;;;;;70.47;8.13;;;20.10;69.20;;;;;;5029637;28;20056;-72
2022/05/15 09:20:52;;;;;;;24.58;4.80;;;20.20;71.80;;;;;;5026600;28;20156;-72
2022/05/15 09:23:26;;;;;;;26.85;4.78;;;20.30;71.80;;;;;;5026553;28;20120;-72
2022/05/15 09:25:58;;;;;;;14.10;4.20;;;20.40;72.70;;;;;;5031013;28;20041;-72
2022/05/15 09:28:26;;;;;;;11.20;4.03;;;20.50;71.20;;;;;;5027506;28;20073;-72
2022/05/15 09:30:55;;;;;;;17.00;4.80;;;20.50;70.70;;;;;;5029437;28;20057;-72
2022/05/15 09:33:46;;;;;;;13.90;4.47;;;20.40;69.80;;;;;;5030580;28;20505;-72
2022/05/15 09:36:28;;;;;;;13.00;4.25;;;20.60;70.40;;;;;;5029717;28;20054;-72
2022/05/15 09:39:22;;;;;;;16.77;4.55;;;20.50;70.30;;;;;;5025934;28;20049;-73
2022/05/15 09:44:45;;;;;;;14.05;4.72;;;20.70;68.60;;;;;;5027664;28;20140;-72
2022/05/15 09:47:10;;;;;;;14.35;4.28;;;20.90;71.70;;;;;;5022461;28;20128;-73
2022/05/15 09:49:36;;;;;;;13.10;4.05;;;21.10;71.70;;;;;;5030981;28;20041;-74
2022/05/15 09:52:36;;;;;;;13.57;4.40;;;21.30;70.80;;;;;;5014764;28;20037;-74
2022/05/15 09:55:19;;;;;;;13.70;4.93;;;21.20;66.70;;;;;;5016732;28;20116;-73
2022/05/15 09:57:57;;;;;;;14.60;4.50;;;20.90;66.20;;;;;;5030467;28;20048;-74
2022/05/15 10:00:25;;;;;;;16.80;4.80;;;21.10;68.20;;;;;;5028783;28;20048;-73
2022/05/15 10:02:53;;;;;;;12.27;3.88;;;21.20;68.50;;;;;;5028842;28;20120;-73
2022/05/15 10:05:24;;;;;;;16.38;4.88;;;21.30;69.10;;;;;;5029931;28;20132;-73
2022/05/15 10:08:01;;;;;;;15.35;4.85;;;21.20;65.60;;;;;;5014512;28;20061;-73
2022/05/15 10:10:38;;;;;;;23.98;5.75;;;20.90;66.60;;;;;;5030494;28;20129;-73
2022/05/15 10:13:11;;;;;;;12.95;4.35;;;21.10;68.80;;;;;;5029703;28;20116;-73
2022/05/15 10:15:44;;;;;;;13.30;4.15;;;21.10;67.60;;;;;;5016575;28;20076;-73
2022/05/15 10:18:24;;;;;;;16.63;4.25;;;20.90;65.70;;;;;;5040894;28;20060;-73
2022/05/15 10:20:52;;;;;;;12.18;4.45;;;21.00;66.50;;;;;;5005478;28;20688;-73
2022/05/15 10:23:28;;;;;;;13.40;4.25;;;20.90;66.40;;;;;;5030902;28;20090;-72
2022/05/15 10:26:11;;;;;;;12.77;4.15;;;21.10;67.20;;;;;;5028583;28;20120;-72
2022/05/15 10:28:45;;;;;;;14.45;4.50;;;21.30;67.00;;;;;;5030483;28;20037;-72
2022/05/15 10:31:14;;;;;;;12.65;4.03;;;21.40;66.00;;;;;;5025910;28;20057;-72
2022/05/15 10:33:42;;;;;;;12.88;3.50;;;21.50;64.90;;;;;;5001638;28;20045;-72
2022/05/15 10:36:23;;;;;;;15.07;3.92;;;21.70;68.50;;;;;;5026878;28;20049;-71
2022/05/15 10:39:06;;;;;;;13.13;4.28;;;21.90;65.50;;;;;;5030726;28;20048;-72
2022/05/15 10:41:53;;;;;;;12.93;4.03;;;21.80;66.00;;;;;;5014119;28;20037;-71
2022/05/15 10:44:42;;;;;;;16.52;4.63;;;22.10;66.90;;;;;;5025593;28;20060;-72
2022/05/15 10:47:14;;;;;;;13.77;4.63;;;22.20;65.90;;;;;;5030489;28;20518;-72
2022/05/15 10:49:45;;;;;;;13.90;3.90;;;22.20;66.20;;;;;;5030433;28;20053;-72
2022/05/15 10:52:23;;;;;;;13.57;4.07;;;22.20;64.90;;;;;;5030542;28;20049;-72
2022/05/15 10:58:21;;;;;;;13.80;4.03;;;22.00;65.30;;;;;;5023959;28;20391;-72
2022/05/15 11:01:08;;;;;;;11.98;4.05;;;21.90;63.80;;;;;;5005589;28;20048;-72
2022/05/15 11:04:13;;;;;;;12.30;3.70;;;21.80;63.30;;;;;;5046068;28;20060;-72
2022/05/15 11:06:42;;;;;;;12.13;3.75;;;21.90;65.00;;;;;;5025806;28;20068;-71
2022/05/15 11:09:22;;;;;;;8.63;3.65;;;21.90;62.40;;;;;;5028903;28;20049;-72
2022/05/15 11:12:07;;;;;;;12.32;3.67;;;22.00;62.70;;;;;;5022294;28;20717;-72
2022/05/15 11:14:44;;;;;;;12.10;3.88;;;22.30;65.70;;;;;;5015981;28;20044;-72
2022/05/15 11:17:28;;;;;;;11.50;3.72;;;22.60;66.00;;;;;;5003723;28;20053;-72
2022/05/15 11:19:58;;;;;;;13.80;3.85;;;22.60;63.70;;;;;;5006364;28;20068;-71
2022/05/15 11:22:34;;;;;;;9.68;3.72;;;22.40;60.70;;;;;;5026333;28;20046;-71
2022/05/15 11:25:16;;;;;;;11.30;3.85;;;22.20;63.00;;;;;;5023759;28;20180;-71
2022/05/15 11:27:55;;;;;;;13.02;3.75;;;22.40;61.70;;;;;;5014723;28;20559;-71
2022/05/15 11:30:37;;;;;;;12.15;3.45;;;22.60;63.70;;;;;;5022303;28;20031;-71
2022/05/15 11:33:31;;;;;;;10.38;3.40;;;22.70;63.00;;;;;;5029602;28;20511;-71
2022/05/15 11:36:21;;;;;;;9.05;3.63;;;22.80;62.00;;;;;;5018695;28;20033;-71
2022/05/15 11:38:58;;;;;;;11.25;3.78;;;22.90;63.00;;;;;;5007433;28;20045;-71
2022/05/15 11:41:36;;;;;;;9.38;3.25;;;22.80;57.80;;;;;;5018702;28;20052;-71
2022/05/15 11:44:03;;;;;;;13.45;4.05;;;22.90;61.70;;;;;;5024733;28;20044;-71
2022/05/15 11:46:51;;;;;;;11.25;3.60;;;22.90;59.10;;;;;;5028835;28;20359;-71
2022/05/15 11:49:39;;;;;;;13.18;4.45;;;22.90;62.30;;;;;;5012446;28;20048;-71
2022/05/15 11:52:23;;;;;;;12.48;4.00;;;23.00;60.70;;;;;;5025924;28;20045;-71
2022/05/15 11:54:51;;;;;;;14.50;3.78;;;22.40;56.80;;;;;;5013422;28;20394;-71
2022/05/15 11:57:45;;;;;;;11.82;3.47;;;22.70;60.10;;;;;;5023616;28;20041;-71
2022/05/15 12:00:23;;;;;;;15.18;3.78;;;22.80;61.50;;;;;;5029049;28;20068;-71
2022/05/15 12:02:58;;;;;;;10.65;4.00;;;22.30;57.70;;;;;;5028253;28;20045;-71
2022/05/15 12:05:37;;;;;;;14.30;3.72;;;22.70;61.20;;;;;;5025939;28;20044;-71
2022/05/15 12:08:25;;;;;;;8.55;3.10;;;23.00;62.30;;;;;;5025960;28;20099;-71
2022/05/15 12:10:56;;;;;;;12.38;3.40;;;23.20;61.50;;;;;;5040538;28;20114;-71
2022/05/15 12:13:36;;;;;;;8.73;3.22;;;23.40;61.20;;;;;;5027327;28;20044;-71
2022/05/15 12:16:27;;;;;;;7.20;3.78;;;23.40;58.10;;;;;;5025874;28;20039;-71
2022/05/15 12:19:05;;;;;;;15.23;3.60;;;23.40;58.60;;;;;;5025535;28;20033;-71
2022/05/15 12:21:45;;;;;;;9.77;3.65;;;23.50;58.00;;;;;;5012653;28;20045;-70
2022/05/15 12:24:27;;;;;;;8.25;3.25;;;23.50;56.90;;;;;;5024797;28;20431;-70
2022/05/15 12:27:07;;;;;;;;;;;23.70;61.10;;;;;;5022331;28;20048;-70
2022/05/15 12:29:42;;;;;;;11.48;3.90;;;23.90;59.50;;;;;;5025632;28;20302;-70
2022/05/15 12:32:12;;;;;;;8.13;3.40;;;23.90;59.10;;;;;;5025800;28;20041;-71
2022/05/15 12:34:46;;;;;;;12.20;4.10;;;24.10;60.80;;;;;;5025618;28;20475;-71
2022/05/15 12:37:19;;;;;;;10.95;3.58;;;24.20;60.60;;;;;;5028324;28;20041;-71
2022/05/15 12:39:49;;;;;;;12.52;3.95;;;24.30;59.30;;;;;;5023175;28;20047;-70
2022/05/15 12:42:33;;;;;;;9.77;3.60;;;24.30;56.80;;;;;;5012336;28;20537;-70
2022/05/15 12:45:07;;;;;;;12.00;3.05;;;24.10;55.40;;;;;;5025809;28;20060;-70
2022/05/15 12:47:33;;;;;;;8.15;3.40;;;24.30;57.10;;;;;;5045079;28;20042;-70
2022/05/15 12:50:04;;;;;;;11.60;3.35;;;24.20;57.20;;;;;;5020088;28;20480;-70
2022/05/15 12:52:33;;;;;;;11.55;3.67;;;24.30;59.60;;;;;;5027784;28;20053;-70
2022/05/15 12:55:02;;;;;;;11.38;3.10;;;24.30;59.90;;;;;;5031278;28;20510;-70
2022/05/15 12:57:29;;;;;;;9.43;2.90;;;24.40;59.10;;;;;;5024180;28;20052;-70
2022/05/15 12:59:55;;;;;;;10.52;3.17;;;24.30;59.70;;;;;;5028481;28;20475;-70
2022/05/15 13:02:33;;;;;;;18.95;3.92;;;24.30;58.50;;;;;;5018119;28;20052;-70
2022/05/15 13:05:02;;;;;;;10.55;3.42;;;24.00;56.10;;;;;;5040012;28;20073;-70
2022/05/15 13:07:38;;;;;;;8.05;2.90;;;23.80;56.50;;;;;;5032055;28;20418;-70
2022/05/15 13:10:11;;;;;;;9.50;3.03;;;23.90;57.30;;;;;;5040874;28;20033;-70
2022/05/15 13:12:50;;;;;;;10.00;3.10;;;23.90;53.50;;;;;;5028303;28;20079;-70
2022/05/15 13:15:21;;;;;;;14.18;3.80;;;24.00;58.70;;;;;;5024018;28;20041;-71
2022/05/15 13:17:48;;;;;;;8.63;2.92;;;24.10;57.40;;;;;;5026927;28;20133;-71